Time;durP1;ratioP1;P1;durP2;ratioP2;P2;SDS_P1;SDS_P2;PMS_P1;PMS_P2;Temp;Humidity;BMP_temperature;BMP_pressure;BME280_temperature;BME280_humidity;BME280_pressure;Samples;Min_cycle;Max_cycle;Signal;HPM_P1;HPM_P2
2022/03/03 00:01:25;;;;;;;104.78;47.75;;;;;;;-3.66;64.74;100719.20;2208130;80;21013;-76
2022/03/03 00:04:27;;;;;;;114.17;47.83;;;;;;;-3.71;65.15;100727.61;2206083;80;21044;-76
2022/03/03 00:07:29;;;;;;;109.35;47.65;;;;;;;-3.69;65.30;100733.59;2207297;80;21054;-76
2022/03/03 00:10:31;;;;;;;120.00;52.73;;;;;;;-3.73;64.92;100725.52;2207951;80;21028;-76
2022/03/03 00:13:33;;;;;;;122.90;52.45;;;;;;;-3.71;65.38;100728.91;2205071;80;21036;-77
2022/03/03 00:16:35;;;;;;;112.45;51.98;;;;;;;-3.70;65.44;100716.32;2204817;80;20996;-76
2022/03/03 00:19:37;;;;;;;115.67;49.70;;;;;;;-3.72;65.21;100722.47;2204687;80;21460;-76
2022/03/03 00:22:38;;;;;;;116.20;50.90;;;;;;;-3.77;65.02;100720.50;2206627;80;21014;-76
2022/03/03 00:25:40;;;;;;;112.80;52.25;;;;;;;-3.79;65.04;100724.48;2206523;80;21068;-77
2022/03/03 00:28:42;;;;;;;121.77;51.83;;;;;;;-3.81;65.21;100719.79;2210258;80;21052;-76
2022/03/03 00:31:44;;;;;;;123.72;55.33;;;;;;;-3.80;65.20;100715.02;2208944;80;21065;-77
2022/03/03 00:34:48;;;;;;;127.80;54.30;;;;;;;-3.86;65.67;100710.92;2205394;80;21035;-76
2022/03/03 00:37:50;;;;;;;122.60;52.38;;;;;;;-3.95;65.57;100709.12;2201308;80;21006;-77
2022/03/03 00:40:52;;;;;;;129.70;57.38;;;;;;;-4.01;65.40;100708.91;2208460;80;21022;-76
2022/03/03 00:43:58;;;;;;;120.42;54.33;;;;;;;-4.00;65.96;100704.56;2206197;80;21460;-74
2022/03/03 00:47:06;;;;;;;132.52;56.37;;;;;;;-3.99;65.74;100705.81;2183090;80;21572;-74
2022/03/03 00:50:08;;;;;;;137.95;58.55;;;;;;;-3.97;65.59;100704.44;2208504;80;21040;-76
2022/03/03 00:53:14;;;;;;;154.47;65.78;;;;;;;-4.00;65.60;100694.19;2206833;80;21001;-77
2022/03/03 00:56:17;;;;;;;135.63;58.58;;;;;;;-4.01;65.69;100704.18;2201197;80;21009;-74
2022/03/03 00:59:19;;;;;;;133.32;56.50;;;;;;;-3.96;65.58;100702.26;2182722;79;20986;-74
2022/03/03 01:02:20;;;;;;;136.07;56.77;;;;;;;-3.98;65.23;100697.58;2181582;79;21020;-75
2022/03/03 01:05:27;;;;;;;120.45;55.43;;;;;;;-3.96;65.41;100700.50;2184837;79;21021;-76
2022/03/03 01:08:33;;;;;;;115.28;53.02;;;;;;;-3.97;65.43;100696.66;2187378;79;21492;-79
2022/03/03 01:11:37;;;;;;;121.33;55.58;;;;;;;-3.99;65.90;100697.20;2187240;79;21033;-76
2022/03/03 01:14:41;;;;;;;127.27;55.65;;;;;;;-4.10;66.03;100691.97;2185341;79;21072;-77
2022/03/03 01:17:49;;;;;;;128.42;56.63;;;;;;;-4.04;66.10;100700.41;2183430;79;20994;-77
2022/03/03 01:20:54;;;;;;;139.40;59.10;;;;;;;-4.14;66.07;100698.61;2188302;79;21053;-77
2022/03/03 01:23:57;;;;;;;131.67;57.27;;;;;;;-4.19;66.36;100691.49;2179536;79;21509;-76
2022/03/03 01:26:59;;;;;;;124.38;58.35;;;;;;;-4.10;66.29;100695.02;2214272;79;21139;-77
2022/03/03 01:30:02;;;;;;;123.60;56.08;;;;;;;-4.11;66.34;100692.01;2216623;79;21044;-76
2022/03/03 01:33:07;;;;;;;120.55;57.75;;;;;;;-4.14;66.16;100694.30;2183043;79;21001;-77
2022/03/03 01:36:13;;;;;;;121.22;56.05;;;;;;;-4.26;66.24;100694.75;2210314;79;21127;-77
2022/03/03 01:39:18;;;;;;;126.82;56.83;;;;;;;-4.39;66.28;100690.50;2214414;79;21049;-77
2022/03/03 01:42:20;;;;;;;140.90;63.10;;;;;;;-4.41;66.48;100685.81;2211140;79;21316;-76
2022/03/03 01:45:22;;;;;;;125.92;58.90;;;;;;;-4.41;67.06;100682.39;2215784;79;21016;-77
2022/03/03 01:48:24;;;;;;;113.62;53.40;;;;;;;-4.42;67.30;100669.02;2211121;79;21531;-76
2022/03/03 01:51:25;;;;;;;116.45;52.20;;;;;;;-4.39;67.34;100668.48;2214607;79;21057;-76
2022/03/03 01:54:27;;;;;;;128.75;54.75;;;;;;;-4.39;67.26;100666.31;2213792;79;21064;-76
2022/03/03 01:57:34;;;;;;;127.20;56.85;;;;;;;-4.42;67.27;100662.12;2215801;79;21029;-76
2022/03/03 02:00:36;;;;;;;125.70;58.38;;;;;;;-4.48;67.29;100655.85;2184125;79;21103;-77
2022/03/03 02:03:38;;;;;;;127.38;57.85;;;;;;;-4.53;67.27;100653.91;2216486;79;21064;-76
2022/03/03 02:06:40;;;;;;;128.60;58.13;;;;;;;-4.53;67.21;100648.27;2219995;79;21044;-76
2022/03/03 02:09:44;;;;;;;128.93;58.13;;;;;;;-4.57;67.21;100646.69;2216045;79;21048;-77
2022/03/03 02:12:50;;;;;;;131.10;59.73;;;;;;;-4.57;67.33;100645.84;2213996;79;21576;-76
2022/03/03 02:15:54;;;;;;;121.97;57.15;;;;;;;-4.58;67.01;100642.42;2214086;79;21044;-76
2022/03/03 02:18:56;;;;;;;142.50;59.60;;;;;;;-4.62;66.85;100642.58;2213327;79;21083;-76
2022/03/03 02:21:58;;;;;;;134.87;57.95;;;;;;;-4.62;66.74;100639.98;2191592;79;21092;-76
2022/03/03 02:24:59;;;;;;;128.07;57.35;;;;;;;-4.65;66.78;100637.06;2214616;79;21092;-76
2022/03/03 02:28:04;;;;;;;125.42;55.88;;;;;;;-4.68;66.56;100635.88;2159366;81;21539;-77
2022/03/03 02:31:08;;;;;;;114.32;54.98;;;;;;;-4.71;66.56;100635.16;2162737;81;21080;-76
2022/03/03 02:34:10;;;;;;;131.72;56.88;;;;;;;-4.76;66.86;100637.91;2163897;81;21078;-76
2022/03/03 02:37:16;;;;;;;139.12;58.23;;;;;;;-4.76;66.82;100624.96;2159255;81;21048;-76
2022/03/03 02:40:20;;;;;;;121.82;55.70;;;;;;;-4.80;66.61;100624.23;2176883;79;21079;-76
2022/03/03 02:43:22;;;;;;;130.25;58.63;;;;;;;-4.82;66.55;100623.45;2189694;79;20981;-76
2022/03/03 02:46:24;;;;;;;134.70;59.23;;;;;;;-4.83;66.56;100620.93;2188625;79;21697;-76
2022/03/03 02:49:26;;;;;;;123.55;57.70;;;;;;;-4.90;66.69;100615.11;2183875;79;21052;-76
2022/03/03 02:52:28;;;;;;;124.72;55.12;;;;;;;-4.93;67.06;100615.23;2192398;80;21048;-78
2022/03/03 02:55:30;;;;;;;129.42;56.70;;;;;;;-4.92;67.01;100614.80;2181879;79;21033;-76
2022/03/03 02:58:33;;;;;;;115.32;55.40;;;;;;;-4.83;66.98;100605.39;2205490;79;21029;-76
2022/03/03 03:01:35;;;;;;;125.65;57.70;;;;;;;-4.87;66.99;100603.80;2144600;81;21033;-76
2022/03/03 03:04:37;;;;;;;122.17;55.40;;;;;;;-4.91;67.05;100606.13;2176354;80;21075;-76
2022/03/03 03:07:39;;;;;;;119.85;55.08;;;;;;;-4.88;67.06;100607.31;2186341;79;21043;-76
2022/03/03 03:10:43;;;;;;;119.55;54.13;;;;;;;-4.97;67.05;100602.02;2184638;79;21013;-76
2022/03/03 03:13:47;;;;;;;110.45;53.45;;;;;;;-5.01;67.06;100605.18;2183721;79;21012;-76
2022/03/03 03:16:51;;;;;;;122.92;54.95;;;;;;;-5.03;67.05;100598.37;2183666;79;21088;-76
2022/03/03 03:19:52;;;;;;;126.60;56.95;;;;;;;-5.03;67.10;100595.33;2184912;79;21611;-76
2022/03/03 03:22:54;;;;;;;137.15;60.40;;;;;;;-5.00;67.40;100593.91;2184293;79;21080;-76
2022/03/03 03:25:56;;;;;;;134.87;59.98;;;;;;;-4.90;67.82;100587.94;2182638;79;21048;-76
2022/03/03 03:28:58;;;;;;;139.97;60.08;;;;;;;-4.83;67.95;100592.45;2185193;79;21052;-76
2022/03/03 03:32:02;;;;;;;130.12;60.55;;;;;;;-4.79;68.02;100588.38;2189385;80;21028;-77
2022/03/03 03:35:06;;;;;;;132.95;63.08;;;;;;;-4.77;68.03;100581.86;2186456;79;21567;-76
2022/03/03 03:38:07;;;;;;;134.47;59.03;;;;;;;-4.77;67.98;100574.93;2192073;80;21064;-76
2022/03/03 03:41:10;;;;;;;140.62;62.65;;;;;;;-4.79;67.92;100572.00;2177363;79;21446;-78
2022/03/03 03:44:13;;;;;;;131.67;59.40;;;;;;;-4.76;68.01;100574.05;2141644;81;21088;-76
2022/03/03 03:47:14;;;;;;;129.75;59.25;;;;;;;-4.78;67.88;100575.01;2178097;80;21045;-76
2022/03/03 03:50:16;;;;;;;143.10;62.13;;;;;;;-4.79;67.85;100570.70;2143371;81;20982;-76
2022/03/03 03:53:18;;;;;;;140.57;60.90;;;;;;;-4.76;67.81;100571.88;2143496;81;21562;-76
2022/03/03 03:56:20;;;;;;;143.25;65.60;;;;;;;-4.74;67.84;100573.97;2141428;81;21057;-76
2022/03/03 03:59:22;;;;;;;133.72;58.75;;;;;;;-4.65;68.41;100568.43;2135802;81;21563;-77
2022/03/03 04:02:24;;;;;;;137.43;60.52;;;;;;;-4.65;67.95;100555.94;2136663;81;21067;-76
2022/03/03 04:05:29;;;;;;;138.18;62.53;;;;;;;-4.66;68.02;100560.73;2176376;80;21001;-76
2022/03/03 04:08:32;;;;;;;137.92;61.70;;;;;;;-4.61;68.26;100551.05;2189476;80;21041;-76
2022/03/03 04:11:34;;;;;;;136.82;62.93;;;;;;;-4.62;68.04;100554.06;2192286;80;21076;-76
2022/03/03 04:14:36;;;;;;;135.43;61.68;;;;;;;-4.59;68.03;100547.92;2191760;80;20989;-76
2022/03/03 04:17:38;;;;;;;139.82;61.65;;;;;;;-4.56;68.07;100551.27;2188095;80;21072;-76
2022/03/03 04:20:40;;;;;;;142.82;62.75;;;;;;;-4.59;68.19;100553.98;2189173;80;21072;-77
2022/03/03 04:23:42;;;;;;;130.18;60.15;;;;;;;-4.51;68.34;100555.78;2189625;80;20985;-76
2022/03/03 04:26:44;;;;;;;145.92;64.45;;;;;;;-4.48;68.42;100549.64;2184939;79;21326;-77
2022/03/03 04:29:49;;;;;;;140.15;64.12;;;;;;;-4.44;68.59;100538.73;2187163;79;21592;-77
2022/03/03 04:32:52;;;;;;;144.17;65.97;;;;;;;-4.35;68.65;100537.89;2190210;80;21100;-78
2022/03/03 04:35:54;;;;;;;156.85;69.58;;;;;;;-4.32;68.54;100536.48;2180449;80;21091;-76
2022/03/03 04:38:57;;;;;;;159.43;72.12;;;;;;;-4.25;68.73;100522.84;2159105;81;21018;-76
2022/03/03 04:42:01;;;;;;;159.07;69.75;;;;;;;-4.20;68.82;100525.22;2183587;79;21568;-77
2022/03/03 04:45:06;;;;;;;153.62;70.17;;;;;;;-4.16;68.86;100517.73;2184512;79;21532;-77
2022/03/03 04:48:09;;;;;;;161.07;70.52;;;;;;;-4.13;68.85;100531.39;2145839;81;21053;-77
2022/03/03 04:51:11;;;;;;;167.00;73.05;;;;;;;-4.12;68.79;100522.70;2176127;80;21066;-76
2022/03/03 04:54:13;;;;;;;166.82;71.42;;;;;;;-4.08;68.92;100518.25;2164092;81;21310;-76
2022/03/03 04:57:17;;;;;;;162.92;70.15;;;;;;;-3.98;69.10;100527.77;2163059;81;21092;-76
2022/03/03 05:00:19;;;;;;;159.37;70.52;;;;;;;-3.90;68.94;100533.48;2205558;80;20981;-76
2022/03/03 05:03:21;;;;;;;167.57;73.33;;;;;;;-3.93;68.84;100532.31;2203633;80;21020;-76
2022/03/03 05:06:23;;;;;;;171.85;75.80;;;;;;;-3.89;69.03;100522.19;2208642;80;21658;-76
2022/03/03 05:09:25;;;;;;;162.50;73.75;;;;;;;-3.86;68.99;100522.05;2208612;80;21001;-76
2022/03/03 05:12:27;;;;;;;169.13;74.00;;;;;;;-3.86;68.97;100538.91;2208469;80;20990;-76
2022/03/03 05:15:30;;;;;;;180.30;75.85;;;;;;;-3.93;68.86;100542.23;2209023;80;21017;-76
2022/03/03 05:18:32;;;;;;;168.20;74.85;;;;;;;-3.91;69.15;100539.59;2205677;80;21085;-78
2022/03/03 05:21:34;;;;;;;174.93;75.47;;;;;;;-3.87;69.01;100538.08;2211097;80;21732;-76
2022/03/03 05:24:42;;;;;;;174.95;77.10;;;;;;;-3.94;69.09;100537.96;2205163;80;21008;-76
2022/03/03 05:27:45;;;;;;;166.43;76.37;;;;;;;-3.93;69.27;100536.20;2209156;80;21040;-77
2022/03/03 05:30:49;;;;;;;177.78;77.20;;;;;;;-3.86;69.34;100540.20;2185464;79;21029;-74
2022/03/03 05:33:51;;;;;;;178.00;76.65;;;;;;;-3.76;69.38;100540.22;2149628;81;21033;-77
2022/03/03 05:36:55;;;;;;;172.95;77.12;;;;;;;-3.67;69.43;100526.84;2132705;80;21028;-77
2022/03/03 05:39:59;;;;;;;169.53;74.60;;;;;;;-3.56;69.55;100525.55;2175144;80;21101;-76
2022/03/03 05:43:04;;;;;;;179.07;78.07;;;;;;;-3.54;69.55;100528.93;2174084;80;21096;-77
2022/03/03 05:46:06;;;;;;;180.97;75.67;;;;;;;-3.52;69.67;100518.01;2172473;80;21029;-74
2022/03/03 05:49:10;;;;;;;175.10;78.28;;;;;;;-3.48;69.79;100519.11;2175726;80;20993;-76
2022/03/03 05:52:13;;;;;;;167.22;80.30;;;;;;;-3.42;69.62;100523.19;2131917;82;21037;-83
2022/03/03 05:55:15;;;;;;;174.87;76.85;;;;;;;-3.30;69.73;100517.91;2190991;80;21036;-78
2022/03/03 05:58:20;;;;;;;166.85;74.58;;;;;;;-3.17;69.75;100513.85;2189831;80;21037;-79
2022/03/03 06:01:23;;;;;;;160.78;72.10;;;;;;;-2.97;69.81;100505.14;2173978;80;21040;-76
2022/03/03 06:04:32;;;;;;;176.47;79.90;;;;;;;-2.68;69.80;100510.72;2170376;80;21044;-77
2022/03/03 06:07:37;;;;;;;164.55;76.92;;;;;;;-2.55;69.43;100500.98;2175110;80;21063;-74
2022/03/03 06:10:44;;;;;;;169.93;77.85;;;;;;;-2.60;69.08;100493.02;2169689;80;21033;-76
2022/03/03 06:13:48;;;;;;;180.57;82.97;;;;;;;-2.64;69.17;100491.50;2134475;82;21080;-74
2022/03/03 06:16:52;;;;;;;163.65;77.00;;;;;;;-2.24;69.86;100492.98;2167529;81;21103;-78
2022/03/03 06:19:54;;;;;;;172.17;76.53;;;;;;;-1.76;69.76;100491.88;2189264;80;21001;-81
2022/03/03 06:22:55;;;;;;;175.40;76.22;;;;;;;-1.65;68.89;100494.77;2191791;80;21034;-81
2022/03/03 06:26:04;;;;;;;170.72;75.87;;;;;;;-1.65;68.88;100496.91;2189657;80;21009;-83
2022/03/03 06:29:06;;;;;;;168.22;78.35;;;;;;;-1.57;68.83;100493.08;2186228;80;21576;-83
2022/03/03 06:32:09;;;;;;;208.93;100.07;;;;;;;-1.49;68.73;100489.59;2190567;80;21064;-82
2022/03/03 06:35:10;;;;;;;191.47;88.37;;;;;;;-1.42;68.59;100476.17;2192163;80;21036;-81
2022/03/03 06:38:12;;;;;;;173.85;81.30;;;;;;;-1.29;68.65;100475.55;2191459;80;21017;-81
2022/03/03 06:41:14;;;;;;;167.07;77.32;;;;;;;-1.02;68.71;100469.28;2204643;79;21099;-82
2022/03/03 06:44:15;;;;;;;160.67;77.62;;;;;;;-0.62;68.75;100467.05;2216755;79;21044;-82
2022/03/03 06:47:17;;;;;;;178.50;84.80;;;;;;;0.03;68.41;100468.94;2190614;79;21040;-81
2022/03/03 06:50:19;;;;;;;178.02;82.45;;;;;;;0.62;68.12;100472.77;2208253;79;21020;-81
2022/03/03 06:53:28;;;;;;;157.78;76.57;;;;;;;0.97;67.14;100479.73;2192064;79;20958;-81
2022/03/03 06:56:31;;;;;;;156.45;74.47;;;;;;;0.86;66.44;100484.31;2183298;79;21505;-81
2022/03/03 06:59:35;;;;;;;161.80;74.62;;;;;;;0.70;66.30;100482.27;2188620;79;21630;-81
2022/03/03 07:02:37;;;;;;;163.70;76.35;;;;;;;0.73;66.51;100487.30;2192095;79;21029;-81
2022/03/03 07:05:39;;;;;;;164.20;77.17;;;;;;;0.76;66.28;100488.45;2212626;79;21045;-81
2022/03/03 07:08:43;;;;;;;163.37;77.27;;;;;;;0.75;66.12;100487.23;2189866;79;21000;-81
2022/03/03 07:11:48;;;;;;;179.65;78.60;;;;;;;0.87;66.00;100491.68;2212071;79;21068;-81
2022/03/03 07:14:50;;;;;;;168.25;78.50;;;;;;;1.11;65.97;100481.47;2191231;79;21625;-81
2022/03/03 07:17:57;;;;;;;156.90;74.87;;;;;;;1.27;65.77;100482.18;2216609;79;21547;-80
2022/03/03 07:21:25;;;;;;;144.35;71.67;;;;;;;1.30;65.35;100478.53;2208932;79;21065;-80
2022/03/03 07:24:37;;;;;;;160.00;76.90;;;;;;;1.44;65.63;100476.34;2189938;79;21091;-80
2022/03/03 07:27:45;;;;;;;161.80;76.75;;;;;;;1.81;65.44;100477.84;2180388;79;21057;-81
2022/03/03 07:30:50;;;;;;;155.00;76.55;;;;;;;2.09;64.97;100489.93;2179877;79;21060;-80
2022/03/03 07:34:00;;;;;;;160.85;75.92;;;;;;;2.10;64.20;100492.42;2180243;79;21551;-81
2022/03/03 07:37:10;;;;;;;158.23;75.67;;;;;;;2.20;64.47;100496.11;2180947;79;21576;-81
2022/03/03 07:40:12;;;;;;;163.68;74.53;;;;;;;2.45;64.19;100488.73;2171923;81;21272;-80
2022/03/03 07:43:16;;;;;;;154.40;74.03;;;;;;;2.71;64.17;100486.56;2184986;79;21064;-81
2022/03/03 07:46:17;;;;;;;154.23;75.47;;;;;;;3.16;63.59;100481.63;2177730;80;21114;-81
2022/03/03 07:49:21;;;;;;;150.78;75.57;;;;;;;3.65;63.78;100487.22;2162110;81;21064;-80
2022/03/03 07:52:25;;;;;;;150.05;74.87;;;;;;;4.25;63.01;100487.05;2183353;79;21105;-80
2022/03/03 07:55:28;;;;;;;148.78;72.78;;;;;;;4.61;62.26;100483.00;2212124;79;21025;-80
2022/03/03 07:58:39;;;;;;;141.12;71.35;;;;;;;4.97;62.12;100479.76;2211929;79;20956;-80
2022/03/03 08:01:44;;;;;;;137.52;71.30;;;;;;;5.34;61.61;100478.95;2209422;79;21626;-80
2022/03/03 08:04:50;;;;;;;145.57;71.75;;;;;;;5.62;60.78;100476.22;2211357;79;21024;-80
2022/03/03 08:07:55;;;;;;;140.50;70.22;;;;;;;5.87;60.63;100478.98;2214081;79;21107;-80
2022/03/03 08:11:06;;;;;;;138.45;70.22;;;;;;;6.01;59.73;100481.81;2218427;79;21013;-80
2022/03/03 08:14:07;;;;;;;;;;;;;;;6.03;59.42;100479.89;2216188;79;21072;-80
2022/03/03 08:17:13;;;;;;;129.47;67.55;;;;;;;6.31;59.26;100484.13;2212506;79;20543;-80
2022/03/03 08:20:15;;;;;;;130.00;68.37;;;;;;;6.50;58.55;100482.45;2208067;79;20977;-80
2022/03/03 08:23:19;;;;;;;128.93;63.70;;;;;;;6.71;58.38;100477.61;2170510;80;21025;-80
2022/03/03 08:26:21;;;;;;;128.65;65.50;;;;;;;6.99;57.85;100477.36;2210577;79;21034;-80
2022/03/03 08:29:24;;;;;;;116.50;61.05;;;;;;;7.10;57.12;100478.56;2207910;79;21041;-79
2022/03/03 08:32:31;;;;;;;108.90;57.90;;;;;;;7.04;56.70;100481.75;2208709;79;21009;-80
2022/03/03 08:35:36;;;;;;;119.70;59.63;;;;;;;7.17;56.22;100467.80;2183783;79;21063;-80
2022/03/03 08:38:45;;;;;;;121.17;62.53;;;;;;;7.08;55.85;100471.26;2176738;79;21037;-80
2022/03/03 08:41:46;;;;;;;99.05;55.23;;;;;;;7.23;55.72;100465.59;2178746;79;21588;-80
2022/03/03 08:44:52;;;;;;;91.95;50.28;;;;;;;7.26;55.29;100459.55;2193401;80;21089;-80
2022/03/03 08:48:07;;;;;;;92.27;50.05;;;;;;;7.47;54.69;100466.05;2192332;79;21063;-80
2022/03/03 08:51:09;;;;;;;91.87;48.87;;;;;;;7.58;54.19;100459.30;2186088;80;20985;-80
2022/03/03 08:54:13;;;;;;;87.02;48.13;;;;;;;7.70;53.97;100461.80;2181168;80;21076;-80
2022/03/03 08:57:14;;;;;;;100.12;51.77;;;;;;;7.83;53.63;100458.40;2185432;80;21071;-80
2022/03/03 09:00:17;;;;;;;93.67;49.73;;;;;;;8.01;53.14;100460.66;2192900;80;21044;-80
2022/03/03 09:03:22;;;;;;;112.97;51.83;;;;;;;8.19;52.97;100461.23;2184839;79;21567;-80
2022/03/03 09:06:22;;;;;;;98.75;52.93;;;;;;;8.36;52.86;100463.63;2164509;80;21040;-81
2022/03/03 09:09:23;;;;;;;89.75;48.08;;;;;;;8.39;51.97;100453.65;2117872;81;21077;-81
2022/03/03 09:12:25;;;;;;;84.58;46.45;;;;;;;8.51;52.09;100456.45;2185983;80;21005;-81
2022/03/03 09:15:30;;;;;;;60.43;33.98;;;;;;;8.69;51.40;100443.77;2194713;80;21020;-81
2022/03/03 09:18:31;;;;;;;47.27;27.15;;;;;;;8.68;49.84;100437.66;2187106;80;21088;-81
2022/03/03 09:21:33;;;;;;;49.10;28.42;;;;;;;8.51;49.08;100439.26;2183810;80;21579;-81
2022/03/03 09:24:34;;;;;;;48.35;27.70;;;;;;;8.48;48.84;100439.55;2182409;80;21032;-81
2022/03/03 09:27:36;;;;;;;48.42;26.55;;;;;;;8.40;48.80;100428.86;2184247;80;21009;-81
2022/03/03 09:30:38;;;;;;;42.30;24.65;;;;;;;8.41;47.64;100423.91;2185435;80;22536;-81
2022/03/03 09:33:40;;;;;;;42.25;24.45;;;;;;;8.34;47.26;100427.27;2189555;80;21010;-81
2022/03/03 09:36:42;;;;;;;38.40;24.50;;;;;;;8.31;46.68;100419.95;2185754;79;21005;-81
2022/03/03 09:39:48;;;;;;;62.35;36.13;;;;;;;8.34;45.82;100414.88;2188432;80;21015;-81
2022/03/03 09:42:59;;;;;;;64.05;35.75;;;;;;;8.40;47.18;100419.61;2192658;79;21045;-81
2022/03/03 09:46:01;;;;;;;57.20;32.23;;;;;;;8.62;46.31;100407.83;2170791;80;21640;-81
2022/03/03 09:49:04;;;;;;;58.50;31.75;;;;;;;8.69;46.03;100417.31;2187657;80;21064;-81
2022/03/03 09:52:15;;;;;;;57.03;32.50;;;;;;;8.67;46.33;100419.27;2185139;80;21017;-80
2022/03/03 09:55:18;;;;;;;60.70;32.55;;;;;;;8.64;45.74;100416.92;2185500;80;21045;-81
2022/03/03 09:58:20;;;;;;;56.85;34.35;;;;;;;8.65;45.83;100421.25;2174524;80;21052;-81
2022/03/03 10:01:21;;;;;;;56.13;33.28;;;;;;;8.72;45.98;100418.34;2190260;80;21061;-81
2022/03/03 10:04:25;;;;;;;55.52;31.62;;;;;;;9.00;45.78;100415.67;2189063;80;21021;-81
2022/03/03 10:07:30;;;;;;;51.20;31.23;;;;;;;9.04;45.24;100415.70;2172798;80;21033;-81
2022/03/03 10:10:34;;;;;;;50.33;30.12;;;;;;;9.29;45.17;100423.41;2185263;80;21090;-82
2022/03/03 10:13:48;;;;;;;58.15;32.38;;;;;;;9.45;44.67;100413.47;2190396;80;21050;-81
2022/03/03 10:16:50;;;;;;;59.53;32.70;;;;;;;9.40;44.38;100420.53;2185018;80;21077;-80
2022/03/03 10:19:57;;;;;;;53.02;32.93;;;;;;;9.53;44.68;100413.54;2187430;80;21017;-80
2022/03/03 10:23:01;;;;;;;60.12;33.80;;;;;;;9.66;44.36;100412.66;2180838;80;21041;-80
2022/03/03 10:26:08;;;;;;;56.53;33.73;;;;;;;9.69;44.28;100415.50;2166952;80;21071;-80
2022/03/03 10:29:21;;;;;;;57.35;32.58;;;;;;;9.52;43.55;100414.53;2148682;81;21356;-80
2022/03/03 10:32:24;;;;;;;56.30;31.12;;;;;;;9.32;43.40;100417.80;2135190;81;21063;-81
2022/03/03 10:35:26;;;;;;;51.85;27.98;;;;;;;9.28;43.24;100417.28;2131785;81;21126;-80
2022/03/03 10:38:28;;;;;;;41.23;26.12;;;;;;;9.22;42.15;100411.27;2177403;80;21100;-81
2022/03/03 10:41:46;;;;;;;39.85;24.00;;;;;;;8.98;42.74;100408.73;2105625;81;21185;-80
2022/03/03 10:44:50;;;;;;;48.23;28.38;;;;;;;8.81;42.67;100410.83;2166573;81;21493;-80
2022/03/03 10:48:03;;;;;;;42.50;25.62;;;;;;;8.86;42.21;100413.87;2140081;81;21405;-81
2022/03/03 10:51:06;;;;;;;40.50;23.90;;;;;;;8.89;42.44;100411.42;2144324;81;21048;-80
2022/03/03 10:54:09;;;;;;;45.80;27.50;;;;;;;8.52;40.95;100405.70;2144820;81;21099;-80
2022/03/03 10:57:11;;;;;;;44.88;26.23;;;;;;;8.47;42.06;100403.98;2146699;82;21037;-80
2022/03/03 11:00:20;;;;;;;40.85;25.08;;;;;;;8.36;41.89;100405.45;2121228;82;21001;-80
2022/03/03 11:03:21;;;;;;;42.67;25.55;;;;;;;8.19;42.04;100393.83;2147534;81;21524;-80
2022/03/03 11:06:28;;;;;;;39.25;24.65;;;;;;;8.02;41.91;100392.77;2141103;82;22259;-80
2022/03/03 11:09:32;;;;;;;39.70;23.90;;;;;;;8.00;42.29;100402.67;2128700;83;21414;-80
2022/03/03 11:12:33;;;;;;;38.88;22.67;;;;;;;8.09;41.79;100392.55;2150434;80;21029;-80
2022/03/03 11:15:35;;;;;;;40.28;22.13;;;;;;;8.07;42.02;100388.72;2141499;82;21072;-80
2022/03/03 11:18:37;;;;;;;36.98;20.85;;;;;;;8.07;41.92;100387.89;2144082;82;21072;-80
2022/03/03 11:21:39;;;;;;;31.80;20.48;;;;;;;8.03;41.71;100383.39;2165443;81;20997;-80
2022/03/03 11:24:41;;;;;;;31.65;19.10;;;;;;;7.94;41.78;100390.87;2170049;81;21002;-80
2022/03/03 11:27:44;;;;;;;29.23;18.27;;;;;;;7.96;41.84;100375.68;2168255;81;21080;-80
2022/03/03 11:30:47;;;;;;;29.18;18.57;;;;;;;7.98;41.99;100378.19;2170736;81;21097;-80
2022/03/03 11:33:49;;;;;;;33.53;19.73;;;;;;;7.93;41.74;100384.39;2143874;81;21003;-80
2022/03/03 11:37:10;;;;;;;27.82;18.60;;;;;;;7.88;41.67;100371.59;2150684;81;21090;-80
2022/03/03 11:40:18;;;;;;;34.50;19.80;;;;;;;7.75;41.69;100379.84;2169414;81;21037;-80
2022/03/03 11:43:19;;;;;;;33.90;21.50;;;;;;;7.62;41.70;100377.98;2175945;79;21096;-80
2022/03/03 11:46:49;;;;;;;41.18;24.00;;;;;;;7.57;41.43;100374.47;2183892;79;22027;-80
2022/03/03 11:50:12;;;;;;;33.83;21.02;;;;;;;7.54;42.32;100365.48;2187107;79;21623;-80
2022/03/03 11:53:15;;;;;;;;;;;;;;;7.61;42.50;100377.64;2166320;81;21041;-80
2022/03/03 11:56:16;;;;;;;35.70;21.93;;;;;;;7.74;42.29;100368.95;2212000;79;20161;-80
2022/03/03 11:59:18;;;;;;;39.92;23.62;;;;;;;7.72;42.65;100362.14;2205923;79;21084;-80
2022/03/03 12:02:24;;;;;;;41.23;25.15;;;;;;;7.66;42.33;100360.89;2211046;79;21346;-80
2022/03/03 12:05:32;;;;;;;42.40;24.63;;;;;;;7.69;42.73;100358.46;2205116;79;21080;-80
2022/03/03 12:08:40;;;;;;;42.90;25.72;;;;;;;7.75;42.64;100359.20;2203167;79;21508;-80
2022/03/03 12:11:41;;;;;;;38.90;25.25;;;;;;;7.73;42.86;100352.73;2203976;79;21040;-80
2022/03/03 12:14:58;;;;;;;40.58;24.47;;;;;;;7.79;42.39;100351.33;2171725;80;21029;-80
2022/03/03 12:17:59;;;;;;;51.18;25.20;;;;;;;7.79;42.58;100349.52;2167822;81;21029;-80
2022/03/03 12:21:34;;;;;;;45.03;27.48;;;;;;;7.73;42.48;100347.94;2169170;81;21064;-80
2022/03/03 12:24:38;;;;;;;48.15;26.93;;;;;;;7.75;42.53;100347.32;2211000;79;21041;-80
2022/03/03 12:27:51;;;;;;;44.05;27.02;;;;;;;7.78;42.53;100347.03;2212882;79;21042;-80
2022/03/03 12:30:54;;;;;;;41.75;27.55;;;;;;;7.70;42.82;100345.59;2197139;79;21055;-80
2022/03/03 12:34:06;;;;;;;44.85;27.17;;;;;;;7.77;42.81;100336.10;2212560;79;21033;-80
2022/03/03 12:37:09;;;;;;;43.00;26.23;;;;;;;7.63;42.80;100336.92;2214236;79;21016;-81
2022/03/03 12:40:15;;;;;;;39.92;25.20;;;;;;;7.47;42.72;100337.16;2212545;79;21024;-80
2022/03/03 12:43:18;;;;;;;46.05;25.37;;;;;;;7.43;42.83;100334.44;2201972;79;21059;-81
2022/03/03 12:46:20;;;;;;;40.28;24.72;;;;;;;7.38;42.87;100337.52;2197295;80;21482;-81
2022/03/03 12:49:23;;;;;;;39.92;24.52;;;;;;;7.33;43.07;100334.46;2195942;80;22261;-80
2022/03/03 12:52:25;;;;;;;40.55;25.05;;;;;;;7.26;43.34;100330.70;2195138;80;22162;-81
2022/03/03 12:55:33;;;;;;;38.88;24.12;;;;;;;7.22;43.31;100331.97;2197494;80;21036;-81
2022/03/03 12:58:35;;;;;;;35.98;23.15;;;;;;;7.16;42.85;100323.63;2192879;80;21507;-80
2022/03/03 13:01:38;;;;;;;41.58;24.87;;;;;;;7.18;43.35;100321.70;2173428;81;20993;-80
2022/03/03 13:04:46;;;;;;;38.73;24.35;;;;;;;7.19;43.24;100316.75;2170800;81;20986;-80
2022/03/03 13:07:48;;;;;;;40.73;25.27;;;;;;;7.14;43.36;100312.87;2172475;80;21065;-80
2022/03/03 13:10:52;;;;;;;40.90;25.08;;;;;;;7.07;43.49;100315.24;2199053;80;20975;-80
2022/03/03 13:14:06;;;;;;;39.50;23.87;;;;;;;7.13;43.83;100313.36;2197881;80;21025;-80
2022/03/03 13:17:09;;;;;;;37.28;23.30;;;;;;;7.05;43.72;100305.30;2173455;80;21005;-80
2022/03/03 13:20:12;;;;;;;39.95;23.65;;;;;;;6.97;43.19;100298.56;2172120;80;21567;-80
2022/03/03 13:23:15;;;;;;;38.20;24.75;;;;;;;6.91;43.63;100305.23;2190932;79;21754;-80
2022/03/03 13:26:25;;;;;;;36.93;22.05;;;;;;;6.91;43.96;100302.59;2176941;81;21039;-80
2022/03/03 13:29:28;;;;;;;29.55;18.87;;;;;;;6.89;43.74;100291.83;2187170;80;21044;-80
2022/03/03 13:32:35;;;;;;;29.00;18.20;;;;;;;6.86;42.95;100300.84;2188676;80;21437;-80
2022/03/03 13:35:41;;;;;;;31.27;17.85;;;;;;;6.74;43.11;100296.69;2133230;81;22124;-80
2022/03/03 13:38:44;;;;;;;30.97;18.35;;;;;;;6.73;43.15;100291.91;2168637;80;21538;-80
2022/03/03 13:41:46;;;;;;;35.20;19.27;;;;;;;6.77;43.22;100297.73;2197009;80;20992;-80
2022/03/03 13:44:57;;;;;;;33.85;18.20;;;;;;;6.72;42.93;100291.54;2194269;80;21010;-80
2022/03/03 13:48:17;;;;;;;34.05;20.32;;;;;;;6.66;43.43;100293.91;2182580;79;21044;-81
2022/03/03 13:51:19;;;;;;;34.85;20.10;;;;;;;6.62;43.32;100295.98;2183904;79;21021;-82
2022/03/03 13:54:21;;;;;;;34.85;19.25;;;;;;;6.55;43.45;100292.22;2185936;79;21028;-82
2022/03/03 13:57:39;;;;;;;32.48;18.85;;;;;;;6.46;43.38;100292.55;2182361;79;21592;-82